createdAt,value
2017-12-02T00:01:16.673Z,61.73
2017-12-02T00:03:44.143Z,52.60
2017-12-02T00:06:11.602Z,56.83
2017-12-02T00:08:39.080Z,58.83
2017-12-02T00:11:06.606Z,52.17
2017-12-02T00:13:34.083Z,58.57
2017-12-02T00:16:01.630Z,53.57
2017-12-02T00:18:29.174Z,55.20
2017-12-02T00:20:56.654Z,56.17
2017-12-02T00:23:24.131Z,53.93
2017-12-02T00:25:51.673Z,62.67
2017-12-02T00:28:19.179Z,62.00
2017-12-02T00:30:46.639Z,64.20
2017-12-02T00:33:14.126Z,56.57
2017-12-02T00:35:41.645Z,68.47
2017-12-02T00:38:09.132Z,61.07
2017-12-02T00:40:36.600Z,80.20
2017-12-02T00:43:04.122Z,59.27
2017-12-02T00:45:31.597Z,59.90
2017-12-02T00:47:59.835Z,71.23
2017-12-02T00:50:27.309Z,61.93
2017-12-02T00:52:54.917Z,62.27
2017-12-02T00:55:22.384Z,66.03
2017-12-02T00:57:49.887Z,62.90
2017-12-02T01:00:17.416Z,68.17
2017-12-02T01:02:44.924Z,60.00
2017-12-02T01:05:13.181Z,55.63
2017-12-02T01:07:40.638Z,57.40
2017-12-02T01:10:08.126Z,54.70
2017-12-02T01:12:36.437Z,56.30
2017-12-02T01:15:03.906Z,57.87
2017-12-02T01:17:31.421Z,54.80
2017-12-02T01:19:59.684Z,57.50
2017-12-02T01:22:27.146Z,57.10
2017-12-02T01:24:55.418Z,59.30
2017-12-02T01:27:22.875Z,57.33
2017-12-02T01:29:50.355Z,56.90
2017-12-02T01:32:17.840Z,56.63
2017-12-02T01:34:45.302Z,55.00
2017-12-02T01:37:12.781Z,52.17
2017-12-02T01:39:40.252Z,51.87
2017-12-02T01:42:07.720Z,53.10
2017-12-02T01:44:35.222Z,56.17
2017-12-02T01:47:02.701Z,61.30
2017-12-02T01:49:30.170Z,57.50
2017-12-02T01:51:57.647Z,57.80
2017-12-02T01:54:25.116Z,55.37
2017-12-02T01:56:52.588Z,55.80
2017-12-02T01:59:20.848Z,56.50
2017-12-02T02:01:48.326Z,57.07
2017-12-02T02:04:18.054Z,54.53
2017-12-02T02:06:45.534Z,54.43
2017-12-02T02:09:12.997Z,53.57
2017-12-02T02:11:40.534Z,52.43
2017-12-02T02:14:08.006Z,49.17
2017-12-02T02:16:35.462Z,51.73
2017-12-02T02:19:02.943Z,50.83
2017-12-02T02:21:30.438Z,48.80
2017-12-02T02:23:58.675Z,49.40
2017-12-02T02:26:26.356Z,54.10
2017-12-02T02:28:53.828Z,53.03
2017-12-02T02:31:21.299Z,53.30
2017-12-02T02:33:49.569Z,56.63
2017-12-02T02:36:17.825Z,58.83
2017-12-02T02:38:45.290Z,62.13
2017-12-02T02:41:12.772Z,58.97
2017-12-02T02:43:41.019Z,58.40
2017-12-02T02:46:08.484Z,56.60
2017-12-02T02:48:35.957Z,60.17
2017-12-02T02:51:04.200Z,62.43
2017-12-02T02:53:31.686Z,57.97
2017-12-02T02:55:59.939Z,59.23
2017-12-02T02:58:27.409Z,59.43
2017-12-02T03:00:54.878Z,53.43
2017-12-02T03:03:23.155Z,54.33
2017-12-02T03:05:50.640Z,59.87
2017-12-02T03:08:18.882Z,56.80
2017-12-02T03:10:46.373Z,54.57
2017-12-02T03:13:13.864Z,56.57
2017-12-02T03:15:41.343Z,56.27
2017-12-02T03:18:08.820Z,52.00
2017-12-02T03:20:36.294Z,59.93
2017-12-02T03:23:04.513Z,56.90
2017-12-02T03:25:31.991Z,62.37
2017-12-02T03:27:59.457Z,61.60
2017-12-02T03:30:26.944Z,54.40
2017-12-02T03:32:55.171Z,58.97
2017-12-02T03:35:22.653Z,56.90
2017-12-02T03:37:50.118Z,53.07
2017-12-02T03:40:17.627Z,57.47
2017-12-02T03:42:45.090Z,53.40
2017-12-02T03:45:12.586Z,56.83
2017-12-02T03:47:40.058Z,65.43
2017-12-02T03:50:07.587Z,54.37
2017-12-02T03:52:35.071Z,58.90
2017-12-02T03:55:02.559Z,58.60
2017-12-02T03:57:30.020Z,63.40
2017-12-02T03:59:57.504Z,61.80
2017-12-02T04:02:24.998Z,61.77
2017-12-02T04:04:52.506Z,63.93
2017-12-02T04:07:20.008Z,63.53
2017-12-02T04:09:47.478Z,62.50
2017-12-02T04:12:15.001Z,64.67
2017-12-02T04:14:42.489Z,72.10
2017-12-02T04:17:09.972Z,57.60
2017-12-02T04:19:38.219Z,53.20
2017-12-02T04:22:05.679Z,58.80
2017-12-02T04:24:33.240Z,56.90
2017-12-02T04:27:00.699Z,54.60
2017-12-02T04:29:28.203Z,55.73
2017-12-02T04:31:56.462Z,50.37
2017-12-02T04:34:24.717Z,53.67
2017-12-02T04:36:52.166Z,57.50
2017-12-02T04:39:19.650Z,50.60
2017-12-02T04:41:47.122Z,51.30
2017-12-02T04:44:15.352Z,49.37
2017-12-02T04:46:42.827Z,51.20
2017-12-02T04:49:10.314Z,51.87
2017-12-02T04:51:38.565Z,54.03
2017-12-02T04:54:06.034Z,51.87
2017-12-02T04:56:34.295Z,52.87
2017-12-02T04:59:01.772Z,53.07
2017-12-02T05:01:30.024Z,53.80
2017-12-02T05:03:57.502Z,49.97
2017-12-02T05:06:24.966Z,53.73
2017-12-02T05:08:53.210Z,49.83
2017-12-02T05:11:20.691Z,45.60
2017-12-02T05:13:48.222Z,50.67
2017-12-02T05:16:15.685Z,49.50
2017-12-02T05:18:43.296Z,54.27
2017-12-02T05:21:11.526Z,49.00
2017-12-02T05:23:39.002Z,50.30
2017-12-02T05:26:06.472Z,55.00
2017-12-02T05:28:34.714Z,50.03
2017-12-02T05:31:02.213Z,49.53
2017-12-02T05:33:29.683Z,53.70
2017-12-02T05:35:57.975Z,59.13
2017-12-02T05:38:25.442Z,53.23
2017-12-02T05:40:52.919Z,53.50
2017-12-02T05:43:20.423Z,57.60
2017-12-02T05:45:48.706Z,54.13
2017-12-02T05:48:16.935Z,50.60
2017-12-02T05:50:44.732Z,54.50
2017-12-02T05:53:12.302Z,54.80
2017-12-02T05:55:39.783Z,53.30
2017-12-02T05:58:07.270Z,53.33
2017-12-02T06:00:34.791Z,53.57
2017-12-02T06:03:03.051Z,57.13
2017-12-02T06:05:30.536Z,55.50
2017-12-02T06:07:57.992Z,56.27
2017-12-02T06:10:25.526Z,53.97
2017-12-02T06:12:52.989Z,55.20
2017-12-02T06:15:21.218Z,53.47
2017-12-02T06:17:48.721Z,54.50
2017-12-02T06:20:16.192Z,54.00
2017-12-02T06:22:44.437Z,52.47
2017-12-02T06:25:11.916Z,52.60
2017-12-02T06:27:39.383Z,53.23
2017-12-02T06:30:07.620Z,51.57
2017-12-02T06:32:35.082Z,54.60
2017-12-02T06:35:02.556Z,52.93
2017-12-02T06:37:30.041Z,50.83
2017-12-02T06:39:58.286Z,54.57
2017-12-02T06:42:25.838Z,50.70
2017-12-02T06:44:53.384Z,52.53
2017-12-02T06:47:20.917Z,56.40
2017-12-02T06:49:48.420Z,56.47
2017-12-02T06:52:15.916Z,59.20
2017-12-02T06:54:44.146Z,54.00
2017-12-02T06:57:11.619Z,55.60
2017-12-02T06:59:39.085Z,57.63
2017-12-02T07:02:08.103Z,59.77
2017-12-02T07:04:36.358Z,53.03
2017-12-02T07:07:03.877Z,64.17
2017-12-02T07:09:34.383Z,59.70
2017-12-02T07:12:01.831Z,64.60
2017-12-02T07:14:29.317Z,57.30
2017-12-02T07:16:56.772Z,59.00
2017-12-02T07:19:24.255Z,53.33
2017-12-02T07:21:51.734Z,48.57
2017-12-02T07:24:20.918Z,50.17
2017-12-02T07:26:48.399Z,57.40
2017-12-02T07:29:16.637Z,56.43
2017-12-02T07:31:44.095Z,51.27
2017-12-02T07:34:11.587Z,49.43
2017-12-02T07:36:39.840Z,49.17
2017-12-02T07:39:07.368Z,49.33
2017-12-02T07:41:35.318Z,50.30
2017-12-02T07:44:02.787Z,46.90
2017-12-02T07:46:30.280Z,46.67
2017-12-02T07:48:57.752Z,49.57
2017-12-02T07:51:26.752Z,45.50
2017-12-02T07:53:54.207Z,45.17
2017-12-02T07:56:21.715Z,45.60
2017-12-02T07:58:50.024Z,45.33
2017-12-02T08:01:17.993Z,47.67
2017-12-02T08:03:45.571Z,44.57
2017-12-02T08:06:13.051Z,45.77
2017-12-02T08:08:41.293Z,45.83
2017-12-02T08:11:08.835Z,46.17
2017-12-02T08:13:36.337Z,47.07
2017-12-02T08:16:04.614Z,46.90
2017-12-02T08:18:32.118Z,45.13
2017-12-02T08:20:59.609Z,46.73
2017-12-02T08:23:27.061Z,47.50
2017-12-02T08:25:54.552Z,45.53
2017-12-02T08:28:22.806Z,43.53
2017-12-02T08:30:50.301Z,43.60
2017-12-02T08:33:18.530Z,47.20
2017-12-02T08:35:46.006Z,46.20
2017-12-02T08:38:13.478Z,45.93
2017-12-02T08:40:40.958Z,46.63
2017-12-02T08:43:08.466Z,44.13
2017-12-02T08:45:35.924Z,45.87
2017-12-02T08:48:03.409Z,43.97
2017-12-02T08:50:31.675Z,46.33
2017-12-02T08:52:59.175Z,48.47
2017-12-02T08:55:26.706Z,44.43
2017-12-02T08:57:54.206Z,47.83
2017-12-02T09:00:21.707Z,46.07
2017-12-02T09:02:49.215Z,50.40
2017-12-02T09:05:16.676Z,44.97
2017-12-02T09:07:44.191Z,45.00
2017-12-02T09:10:11.725Z,44.30
2017-12-02T09:12:39.190Z,46.37
2017-12-02T09:15:06.664Z,46.00
2017-12-02T09:17:34.190Z,42.47
2017-12-02T09:20:01.656Z,39.77
2017-12-02T09:22:29.186Z,40.73
2017-12-02T09:24:56.649Z,39.17
2017-12-02T09:27:24.197Z,37.50
2017-12-02T09:29:52.419Z,35.97
2017-12-02T09:32:19.935Z,38.07
2017-12-02T09:34:47.422Z,41.50
2017-12-02T09:37:14.890Z,40.33
2017-12-02T09:39:42.393Z,41.80
2017-12-02T09:42:10.620Z,44.17
2017-12-02T09:44:38.092Z,43.17
2017-12-02T09:47:05.587Z,42.10
2017-12-02T09:49:33.855Z,42.40
2017-12-02T09:52:01.347Z,43.53
2017-12-02T09:54:28.874Z,33.97
2017-12-02T09:56:57.103Z,39.00
2017-12-02T09:59:24.585Z,38.27
2017-12-02T10:01:52.044Z,39.10
2017-12-02T10:04:19.522Z,37.73
2017-12-02T10:06:47.784Z,40.00
2017-12-02T10:09:15.261Z,44.27
2017-12-02T10:11:43.504Z,39.73
2017-12-02T10:14:10.974Z,40.60
2017-12-02T10:16:38.469Z,43.07
2017-12-02T10:19:06.713Z,40.43
2017-12-02T10:21:34.223Z,41.07
2017-12-02T10:24:02.602Z,40.20
2017-12-02T10:26:30.091Z,40.77
2017-12-02T10:28:57.567Z,40.93
2017-12-02T10:31:25.064Z,44.37
2017-12-02T10:33:52.572Z,39.23
2017-12-02T10:36:20.027Z,37.50
2017-12-02T10:38:47.503Z,42.83
2017-12-02T10:41:14.974Z,40.57
2017-12-02T10:43:42.461Z,42.20
2017-12-02T10:46:09.932Z,37.77
2017-12-02T10:48:38.241Z,39.67
2017-12-02T10:51:05.720Z,40.07
2017-12-02T10:53:33.200Z,38.03
2017-12-02T10:56:01.447Z,37.50
2017-12-02T10:58:29.026Z,39.90
2017-12-02T11:00:57.305Z,39.83
2017-12-02T11:03:24.808Z,39.53
2017-12-02T11:05:52.272Z,45.23
2017-12-02T11:08:19.848Z,37.73
2017-12-02T11:10:47.351Z,35.53
2017-12-02T11:13:14.843Z,37.63
2017-12-02T11:15:42.339Z,33.73
2017-12-02T11:18:09.828Z,35.10
2017-12-02T11:20:37.296Z,38.40
2017-12-02T11:23:04.781Z,33.30
2017-12-02T11:25:32.267Z,37.10
2017-12-02T11:28:00.534Z,36.10
2017-12-02T11:30:28.003Z,33.73
2017-12-02T11:32:55.539Z,37.73
2017-12-02T11:35:23.102Z,35.53
2017-12-02T11:37:50.642Z,37.10
2017-12-02T11:40:18.110Z,32.80
2017-12-02T11:42:45.590Z,38.53
2017-12-02T11:45:13.075Z,37.67
2017-12-02T11:47:41.298Z,32.37
2017-12-02T11:50:08.823Z,37.53
2017-12-02T11:52:37.068Z,34.93
2017-12-02T11:55:04.605Z,31.03
2017-12-02T11:57:32.178Z,38.73
2017-12-02T11:59:59.675Z,35.43
2017-12-02T12:02:27.975Z,36.87
2017-12-02T12:04:55.441Z,36.90
2017-12-02T12:07:22.916Z,36.17
2017-12-02T12:09:50.401Z,40.10
2017-12-02T12:12:17.874Z,35.67
2017-12-02T12:14:45.344Z,38.43
2017-12-02T12:17:13.594Z,40.07
2017-12-02T12:19:41.491Z,40.40
2017-12-02T12:22:09.752Z,41.57
2017-12-02T12:24:37.232Z,42.67
2017-12-02T12:27:04.727Z,39.27
2017-12-02T12:29:32.204Z,42.83
2017-12-02T12:31:59.670Z,40.30
2017-12-02T12:34:27.156Z,41.47
2017-12-02T12:36:55.419Z,40.60
2017-12-02T12:39:22.887Z,44.77
2017-12-02T12:41:51.140Z,42.83
2017-12-02T12:44:19.390Z,39.97
2017-12-02T12:46:46.887Z,42.90
2017-12-02T12:49:14.395Z,38.87
2017-12-02T12:51:41.872Z,41.50
2017-12-02T12:54:09.406Z,41.03
2017-12-02T12:56:36.879Z,40.37
2017-12-02T12:59:04.359Z,39.20
2017-12-02T13:01:31.857Z,38.50
2017-12-02T13:04:00.113Z,41.37
2017-12-02T13:06:27.599Z,40.80
2017-12-02T13:08:55.247Z,39.27
2017-12-02T13:11:23.471Z,37.80
2017-12-02T13:13:50.940Z,41.90
2017-12-02T13:16:18.424Z,40.80
2017-12-02T13:18:45.903Z,37.37
2017-12-02T13:21:14.147Z,38.70
2017-12-02T13:23:41.622Z,42.60
2017-12-02T13:26:09.859Z,38.40
2017-12-02T13:28:37.345Z,35.47
2017-12-02T13:31:04.820Z,37.40
2017-12-02T13:33:33.061Z,37.10
2017-12-02T13:36:00.548Z,39.20
2017-12-02T13:38:28.069Z,38.87
2017-12-02T13:40:55.591Z,38.07
2017-12-02T13:43:23.819Z,39.17
2017-12-02T13:45:51.307Z,38.80
2017-12-02T13:48:19.557Z,35.03
2017-12-02T13:50:47.039Z,37.50
2017-12-02T13:53:15.342Z,36.20
2017-12-02T13:55:44.873Z,37.33
2017-12-02T13:58:12.372Z,37.07
2017-12-02T14:00:39.858Z,41.07
2017-12-02T14:03:08.102Z,38.00
2017-12-02T14:05:35.603Z,37.37
2017-12-02T14:08:03.094Z,36.87
2017-12-02T14:10:30.565Z,32.53
2017-12-02T14:12:58.053Z,37.43
2017-12-02T14:15:25.589Z,42.50
2017-12-02T14:17:53.077Z,32.90
2017-12-02T14:20:21.326Z,33.17
2017-12-02T14:22:48.821Z,32.00
2017-12-02T14:25:17.066Z,32.57
2017-12-02T14:27:44.603Z,33.00
2017-12-02T14:30:12.080Z,34.07
2017-12-02T14:32:39.554Z,36.57
2017-12-02T14:35:07.084Z,38.97
2017-12-02T14:37:34.574Z,39.47
2017-12-02T14:40:03.132Z,36.70
2017-12-02T14:42:31.613Z,39.53
2017-12-02T14:45:00.106Z,38.47
2017-12-02T14:47:27.603Z,35.83
2017-12-02T14:49:55.870Z,36.10
2017-12-02T14:52:24.107Z,34.00
2017-12-02T14:54:51.617Z,38.57
2017-12-02T14:57:19.846Z,38.20
2017-12-02T14:59:47.341Z,36.53
2017-12-02T15:02:15.590Z,36.37
2017-12-02T15:04:43.039Z,36.10
2017-12-02T15:07:10.519Z,36.30
2017-12-02T15:09:37.971Z,35.23
2017-12-02T15:12:05.507Z,32.30
2017-12-02T15:14:32.965Z,36.70
2017-12-02T15:17:00.435Z,40.43
2017-12-02T15:19:27.906Z,39.10
2017-12-02T15:21:55.392Z,36.70
2017-12-02T15:24:23.724Z,39.20
2017-12-02T15:26:51.198Z,35.97
2017-12-02T15:29:18.712Z,38.80
2017-12-02T15:31:47.852Z,38.43
2017-12-02T15:34:15.336Z,38.63
2017-12-02T15:36:43.567Z,37.87
2017-12-02T15:39:11.040Z,38.80
2017-12-02T15:41:38.503Z,37.73
2017-12-02T15:44:05.989Z,39.50
2017-12-02T15:46:34.291Z,41.07
2017-12-02T15:49:09.067Z,39.13
2017-12-02T15:51:37.354Z,41.70
2017-12-02T15:54:04.913Z,38.27
2017-12-02T15:56:32.374Z,37.90
2017-12-02T15:58:59.894Z,37.63
2017-12-02T16:01:27.370Z,39.40
2017-12-02T16:03:54.850Z,36.97
2017-12-02T16:06:22.424Z,38.50
2017-12-02T16:08:50.664Z,38.70
2017-12-02T16:11:18.146Z,38.20
2017-12-02T16:13:45.611Z,40.00
2017-12-02T16:16:13.903Z,37.30
2017-12-02T16:18:41.426Z,37.80
2017-12-02T16:21:09.729Z,39.10
2017-12-02T16:23:37.975Z,37.47
2017-12-02T16:26:05.452Z,35.83
2017-12-02T16:28:32.914Z,41.07
2017-12-02T16:31:01.210Z,38.77
2017-12-02T16:33:28.682Z,36.97
2017-12-02T16:35:56.151Z,38.07
2017-12-02T16:38:23.635Z,37.97
2017-12-02T16:40:51.853Z,35.70
2017-12-02T16:43:19.343Z,37.50
2017-12-02T16:45:46.798Z,32.63
2017-12-02T16:48:14.282Z,34.13
2017-12-02T16:50:42.251Z,41.07
2017-12-02T16:53:09.759Z,38.00
2017-12-02T16:55:38.003Z,38.80
2017-12-02T16:58:05.515Z,36.80
2017-12-02T17:00:32.990Z,37.17
2017-12-02T17:03:00.468Z,35.50
2017-12-02T17:05:28.113Z,37.90
2017-12-02T17:07:55.665Z,36.83
2017-12-02T17:10:23.135Z,39.60
2017-12-02T17:12:50.645Z,37.57
2017-12-02T17:15:19.007Z,36.77
2017-12-02T17:17:46.486Z,37.77
2017-12-02T17:20:14.891Z,38.83
2017-12-02T17:22:43.121Z,36.70
2017-12-02T17:25:10.608Z,39.93
2017-12-02T17:27:38.105Z,38.70
2017-12-02T17:30:05.613Z,40.97
2017-12-02T17:32:33.860Z,40.10
2017-12-02T17:35:01.711Z,38.67
2017-12-02T17:37:29.245Z,41.37
2017-12-02T17:39:56.830Z,39.93
2017-12-02T17:42:24.335Z,42.40
2017-12-02T17:44:52.575Z,38.57
2017-12-02T17:47:20.080Z,37.50
2017-12-02T17:49:47.548Z,39.23
2017-12-02T17:52:16.029Z,40.70
2017-12-02T17:54:43.511Z,42.53
2017-12-02T17:57:10.997Z,41.03
2017-12-02T17:59:38.532Z,42.40
2017-12-02T18:02:06.886Z,37.67
2017-12-02T18:04:34.795Z,37.43
2017-12-02T18:07:03.350Z,40.33
2017-12-02T18:09:30.846Z,42.07
2017-12-02T18:11:58.312Z,43.57
2017-12-02T18:14:25.788Z,38.20
2017-12-02T18:16:53.258Z,40.17
2017-12-02T18:19:22.087Z,40.30
2017-12-02T18:21:49.584Z,38.30
2017-12-02T18:24:17.131Z,41.20
2017-12-02T18:26:46.462Z,39.63
2017-12-02T18:29:14.516Z,40.00
2017-12-02T18:31:42.878Z,39.17
2017-12-02T18:34:10.390Z,36.10
2017-12-02T18:36:37.952Z,37.93
2017-12-02T18:39:05.606Z,38.33
2017-12-02T18:41:33.845Z,36.40
2017-12-02T18:44:01.327Z,32.10
2017-12-02T18:46:29.669Z,34.57
2017-12-02T18:48:57.947Z,36.37
2017-12-02T18:51:25.446Z,35.40
2017-12-02T18:53:53.677Z,35.43
2017-12-02T18:56:21.151Z,37.60
2017-12-02T18:58:48.619Z,38.30
2017-12-02T19:01:16.155Z,34.47
2017-12-02T19:03:43.688Z,37.27
2017-12-02T19:06:11.152Z,32.97
2017-12-02T19:08:38.634Z,32.80
2017-12-02T19:11:06.187Z,30.17
2017-12-02T19:13:33.673Z,32.63
2017-12-02T19:16:01.155Z,35.00
2017-12-02T19:18:29.489Z,36.43
2017-12-02T19:20:56.977Z,33.57
2017-12-02T19:23:24.543Z,33.37
2017-12-02T19:25:52.067Z,33.70
2017-12-02T19:28:20.434Z,33.40
2017-12-02T19:30:47.958Z,35.10
2017-12-02T19:33:15.551Z,35.37
2017-12-02T19:35:43.040Z,32.73
2017-12-02T19:38:10.507Z,33.63
2017-12-02T19:40:38.064Z,32.43
2017-12-02T19:43:05.551Z,36.17
2017-12-02T19:45:34.423Z,33.40
2017-12-02T19:48:02.670Z,36.10
2017-12-02T19:50:30.306Z,35.50
2017-12-02T19:52:57.767Z,34.70
2017-12-02T19:55:26.294Z,33.60
2017-12-02T19:57:54.571Z,36.17
2017-12-02T20:00:22.955Z,37.27
2017-12-02T20:02:51.320Z,37.20
2017-12-02T20:05:19.008Z,38.27
2017-12-02T20:07:47.351Z,41.33
2017-12-02T20:10:14.918Z,36.70
2017-12-02T20:12:42.723Z,35.07
2017-12-02T20:15:10.303Z,33.03
2017-12-02T20:17:38.010Z,33.37
2017-12-02T20:20:06.308Z,34.40
2017-12-02T20:22:34.096Z,33.97
2017-12-02T20:25:02.199Z,37.20
2017-12-02T20:27:30.306Z,35.00
2017-12-02T20:29:58.000Z,32.47
2017-12-02T20:32:27.126Z,36.83
2017-12-02T20:34:54.615Z,37.53
2017-12-02T20:37:22.202Z,41.43
2017-12-02T20:39:50.814Z,42.77
2017-12-02T20:42:18.304Z,38.00
2017-12-02T20:44:45.887Z,42.17
2017-12-02T20:47:13.463Z,39.87
2017-12-02T20:49:41.726Z,39.60
2017-12-02T20:52:09.211Z,40.33
2017-12-02T20:54:37.460Z,41.67
2017-12-02T20:57:04.952Z,39.90
2017-12-02T20:59:33.207Z,41.07
2017-12-02T21:02:00.965Z,44.77
2017-12-02T21:04:28.611Z,39.93
2017-12-02T21:06:56.120Z,45.43
2017-12-02T21:09:24.432Z,39.90
2017-12-02T21:11:52.075Z,48.00
2017-12-02T21:14:19.633Z,47.87
2017-12-02T21:16:47.160Z,46.53
2017-12-02T21:19:15.471Z,42.20
2017-12-02T21:21:43.014Z,43.40
2017-12-02T21:24:10.842Z,38.87
2017-12-02T21:26:38.787Z,43.93
2017-12-02T21:29:06.349Z,46.43
2017-12-02T21:31:33.830Z,45.90
2017-12-02T21:34:01.410Z,47.17
2017-12-02T21:36:29.873Z,52.70
2017-12-02T21:38:57.382Z,54.87
2017-12-02T21:41:25.454Z,61.43
2017-12-02T21:43:53.328Z,57.97
2017-12-02T21:46:20.888Z,55.60
2017-12-02T21:48:48.940Z,56.83
2017-12-02T21:51:16.429Z,42.33
2017-12-02T21:53:44.076Z,42.50
2017-12-02T21:56:11.597Z,45.70
2017-12-02T21:58:39.146Z,43.87
2017-12-02T22:01:06.671Z,35.20
2017-12-02T22:03:34.223Z,30.23
2017-12-02T22:06:01.795Z,28.43
2017-12-02T22:08:29.287Z,29.10
2017-12-02T22:10:56.773Z,30.07
2017-12-02T22:13:25.322Z,26.73
2017-12-02T22:15:52.880Z,28.80
2017-12-02T22:18:20.485Z,29.10
2017-12-02T22:20:47.965Z,33.07
2017-12-02T22:23:15.454Z,30.00
2017-12-02T22:25:42.956Z,30.20
2017-12-02T22:28:11.186Z,27.47
2017-12-02T22:30:38.673Z,28.03
2017-12-02T22:33:06.263Z,26.97
2017-12-02T22:35:34.344Z,26.80
2017-12-02T22:38:01.827Z,27.97
2017-12-02T22:40:29.359Z,22.30
2017-12-02T22:42:56.838Z,22.90
2017-12-02T22:45:24.299Z,21.90
2017-12-02T22:47:51.810Z,22.63
2017-12-02T22:50:20.087Z,20.80
2017-12-02T22:52:47.662Z,23.80
2017-12-02T22:55:15.153Z,24.03
2017-12-02T22:57:42.683Z,23.57
2017-12-02T23:00:10.644Z,24.30
2017-12-02T23:02:38.907Z,21.10
2017-12-02T23:05:06.403Z,20.07
2017-12-02T23:07:33.914Z,22.37
2017-12-02T23:10:01.396Z,24.27
2017-12-02T23:12:29.640Z,25.50
2017-12-02T23:14:57.111Z,23.90
2017-12-02T23:17:24.609Z,19.47
2017-12-02T23:19:52.125Z,19.60
2017-12-02T23:22:19.632Z,21.50
2017-12-02T23:24:47.170Z,20.30
2017-12-02T23:27:15.426Z,16.93
2017-12-02T23:29:42.994Z,18.47
2017-12-02T23:32:11.245Z,19.57
2017-12-02T23:34:38.718Z,18.33
2017-12-02T23:37:06.233Z,17.50
2017-12-02T23:39:33.728Z,17.83
2017-12-02T23:42:01.983Z,17.50
2017-12-02T23:44:29.467Z,15.80
2017-12-02T23:46:56.953Z,16.60
2017-12-02T23:49:25.212Z,16.70
2017-12-02T23:51:52.704Z,17.07
2017-12-02T23:54:20.215Z,18.30
2017-12-02T23:56:47.704Z,15.80
2017-12-02T23:59:15.978Z,14.87
